sensor_id;sensor_type;location;lat;lon;timestamp;P1;durP1;ratioP1;P2;durP2;ratioP2
35847;SDS011;22332;51.954;20.118;2024-02-26T00:02:40;120.10;;;41.30;;
35847;SDS011;22332;51.954;20.118;2024-02-26T00:05:46;189.00;;;55.80;;
35847;SDS011;22332;51.954;20.118;2024-02-26T00:08:51;230.80;;;73.50;;
35847;SDS011;22332;51.954;20.118;2024-02-26T00:11:57;106.10;;;36.60;;
35847;SDS011;22332;51.954;20.118;2024-02-26T00:15:03;69.40;;;25.10;;
35847;SDS011;22332;51.954;20.118;2024-02-26T00:18:09;57.40;;;23.50;;
35847;SDS011;22332;51.954;20.118;2024-02-26T00:21:15;90.90;;;32.50;;
35847;SDS011;22332;51.954;20.118;2024-02-26T00:24:21;130.40;;;40.10;;
35847;SDS011;22332;51.954;20.118;2024-02-26T00:27:26;267.00;;;79.00;;
35847;SDS011;22332;51.954;20.118;2024-02-26T00:30:32;154.90;;;47.00;;
35847;SDS011;22332;51.954;20.118;2024-02-26T00:33:38;175.10;;;53.80;;
35847;SDS011;22332;51.954;20.118;2024-02-26T00:36:44;107.40;;;35.20;;
35847;SDS011;22332;51.954;20.118;2024-02-26T00:39:49;187.20;;;58.60;;
35847;SDS011;22332;51.954;20.118;2024-02-26T00:42:56;123.50;;;41.90;;
35847;SDS011;22332;51.954;20.118;2024-02-26T00:46:01;254.00;;;81.20;;
35847;SDS011;22332;51.954;20.118;2024-02-26T00:49:07;128.10;;;44.30;;
35847;SDS011;22332;51.954;20.118;2024-02-26T00:52:12;49.20;;;21.50;;
35847;SDS011;22332;51.954;20.118;2024-02-26T00:55:18;55.20;;;24.70;;
35847;SDS011;22332;51.954;20.118;2024-02-26T00:58:24;87.60;;;36.20;;
35847;SDS011;22332;51.954;20.118;2024-02-26T01:01:30;93.40;;;39.00;;
35847;SDS011;22332;51.954;20.118;2024-02-26T01:04:35;92.50;;;39.00;;
35847;SDS011;22332;51.954;20.118;2024-02-26T01:07:41;70.70;;;31.10;;
35847;SDS011;22332;51.954;20.118;2024-02-26T01:10:46;49.60;;;23.50;;
35847;SDS011;22332;51.954;20.118;2024-02-26T01:13:52;50.30;;;25.10;;
35847;SDS011;22332;51.954;20.118;2024-02-26T01:16:59;53.50;;;26.40;;
35847;SDS011;22332;51.954;20.118;2024-02-26T01:20:06;31.90;;;17.10;;
35847;SDS011;22332;51.954;20.118;2024-02-26T01:23:13;234.40;;;105.40;;
35847;SDS011;22332;51.954;20.118;2024-02-26T01:26:19;110.10;;;50.60;;
35847;SDS011;22332;51.954;20.118;2024-02-26T01:29:25;53.90;;;26.90;;
35847;SDS011;22332;51.954;20.118;2024-02-26T01:32:30;35.40;;;19.20;;
35847;SDS011;22332;51.954;20.118;2024-02-26T01:35:36;33.50;;;18.60;;
35847;SDS011;22332;51.954;20.118;2024-02-26T01:38:42;33.90;;;18.50;;
35847;SDS011;22332;51.954;20.118;2024-02-26T01:41:48;37.70;;;19.70;;
35847;SDS011;22332;51.954;20.118;2024-02-26T01:44:53;39.80;;;20.10;;
35847;SDS011;22332;51.954;20.118;2024-02-26T01:47:59;31.60;;;16.90;;
35847;SDS011;22332;51.954;20.118;2024-02-26T01:51:05;27.30;;;14.80;;
35847;SDS011;22332;51.954;20.118;2024-02-26T01:54:11;41.90;;;21.80;;
35847;SDS011;22332;51.954;20.118;2024-02-26T01:57:17;39.50;;;21.40;;
35847;SDS011;22332;51.954;20.118;2024-02-26T02:00:23;41.90;;;23.50;;
35847;SDS011;22332;51.954;20.118;2024-02-26T02:03:29;38.00;;;18.40;;
35847;SDS011;22332;51.954;20.118;2024-02-26T02:06:36;31.30;;;16.90;;
35847;SDS011;22332;51.954;20.118;2024-02-26T02:09:44;30.00;;;15.70;;
35847;SDS011;22332;51.954;20.118;2024-02-26T02:12:50;26.80;;;15.50;;
35847;SDS011;22332;51.954;20.118;2024-02-26T02:15:56;30.90;;;16.80;;
35847;SDS011;22332;51.954;20.118;2024-02-26T02:19:02;28.80;;;16.80;;
35847;SDS011;22332;51.954;20.118;2024-02-26T02:22:07;27.40;;;15.60;;
35847;SDS011;22332;51.954;20.118;2024-02-26T02:25:13;29.30;;;17.30;;
35847;SDS011;22332;51.954;20.118;2024-02-26T02:28:19;30.70;;;16.30;;
35847;SDS011;22332;51.954;20.118;2024-02-26T02:31:25;28.60;;;15.60;;
35847;SDS011;22332;51.954;20.118;2024-02-26T02:34:31;28.90;;;15.40;;
35847;SDS011;22332;51.954;20.118;2024-02-26T02:37:38;31.00;;;16.10;;
35847;SDS011;22332;51.954;20.118;2024-02-26T02:40:44;26.20;;;15.50;;
35847;SDS011;22332;51.954;20.118;2024-02-26T02:43:49;28.30;;;15.40;;
35847;SDS011;22332;51.954;20.118;2024-02-26T02:46:55;29.40;;;15.00;;
35847;SDS011;22332;51.954;20.118;2024-02-26T02:50:00;25.90;;;14.30;;
35847;SDS011;22332;51.954;20.118;2024-02-26T02:53:06;28.60;;;14.90;;
35847;SDS011;22332;51.954;20.118;2024-02-26T02:56:11;40.40;;;22.90;;
35847;SDS011;22332;51.954;20.118;2024-02-26T02:59:17;30.10;;;17.00;;
35847;SDS011;22332;51.954;20.118;2024-02-26T03:02:23;29.50;;;16.90;;
35847;SDS011;22332;51.954;20.118;2024-02-26T03:05:28;29.20;;;15.40;;
35847;SDS011;22332;51.954;20.118;2024-02-26T03:08:34;29.60;;;15.90;;
35847;SDS011;22332;51.954;20.118;2024-02-26T03:11:42;30.80;;;15.70;;
35847;SDS011;22332;51.954;20.118;2024-02-26T03:14:48;27.80;;;16.10;;
35847;SDS011;22332;51.954;20.118;2024-02-26T03:17:54;28.70;;;15.00;;
35847;SDS011;22332;51.954;20.118;2024-02-26T03:20:59;26.30;;;14.90;;
35847;SDS011;22332;51.954;20.118;2024-02-26T03:24:06;26.30;;;14.60;;
35847;SDS011;22332;51.954;20.118;2024-02-26T03:27:13;23.30;;;14.10;;
35847;SDS011;22332;51.954;20.118;2024-02-26T03:30:18;28.30;;;15.30;;
35847;SDS011;22332;51.954;20.118;2024-02-26T03:33:24;25.80;;;14.60;;
35847;SDS011;22332;51.954;20.118;2024-02-26T03:36:30;25.50;;;14.30;;
35847;SDS011;22332;51.954;20.118;2024-02-26T03:39:35;26.40;;;14.90;;
35847;SDS011;22332;51.954;20.118;2024-02-26T03:42:41;27.20;;;15.00;;
35847;SDS011;22332;51.954;20.118;2024-02-26T03:45:47;25.70;;;14.50;;
35847;SDS011;22332;51.954;20.118;2024-02-26T03:48:53;25.00;;;13.50;;
35847;SDS011;22332;51.954;20.118;2024-02-26T03:51:58;24.50;;;13.20;;
35847;SDS011;22332;51.954;20.118;2024-02-26T03:55:04;22.70;;;11.90;;
35847;SDS011;22332;51.954;20.118;2024-02-26T03:58:11;25.80;;;12.90;;
35847;SDS011;22332;51.954;20.118;2024-02-26T04:01:18;25.70;;;14.00;;
35847;SDS011;22332;51.954;20.118;2024-02-26T04:04:23;23.90;;;13.90;;
35847;SDS011;22332;51.954;20.118;2024-02-26T04:07:29;25.80;;;13.70;;
35847;SDS011;22332;51.954;20.118;2024-02-26T04:10:34;25.30;;;14.00;;
35847;SDS011;22332;51.954;20.118;2024-02-26T04:13:41;24.90;;;14.30;;
35847;SDS011;22332;51.954;20.118;2024-02-26T04:16:49;23.70;;;14.40;;
35847;SDS011;22332;51.954;20.118;2024-02-26T04:19:57;30.10;;;16.70;;
35847;SDS011;22332;51.954;20.118;2024-02-26T04:23:03;27.60;;;15.40;;
35847;SDS011;22332;51.954;20.118;2024-02-26T04:26:09;78.50;;;39.10;;
35847;SDS011;22332;51.954;20.118;2024-02-26T04:29:14;58.50;;;30.60;;
35847;SDS011;22332;51.954;20.118;2024-02-26T04:32:20;58.40;;;30.50;;
35847;SDS011;22332;51.954;20.118;2024-02-26T04:35:26;52.80;;;27.10;;
35847;SDS011;22332;51.954;20.118;2024-02-26T04:38:31;78.80;;;31.70;;
35847;SDS011;22332;51.954;20.118;2024-02-26T04:41:37;71.80;;;28.10;;
35847;SDS011;22332;51.954;20.118;2024-02-26T04:44:43;47.90;;;23.10;;
35847;SDS011;22332;51.954;20.118;2024-02-26T04:47:48;65.80;;;37.90;;
35847;SDS011;22332;51.954;20.118;2024-02-26T04:50:54;55.70;;;30.50;;
35847;SDS011;22332;51.954;20.118;2024-02-26T04:53:59;34.50;;;17.30;;
35847;SDS011;22332;51.954;20.118;2024-02-26T04:57:05;30.20;;;15.10;;
35847;SDS011;22332;51.954;20.118;2024-02-26T05:00:12;52.20;;;21.20;;
35847;SDS011;22332;51.954;20.118;2024-02-26T05:03:19;96.50;;;30.10;;
35847;SDS011;22332;51.954;20.118;2024-02-26T05:06:24;48.60;;;20.60;;
35847;SDS011;22332;51.954;20.118;2024-02-26T05:09:30;35.70;;;16.60;;
35847;SDS011;22332;51.954;20.118;2024-02-26T05:12:38;32.20;;;15.90;;
35847;SDS011;22332;51.954;20.118;2024-02-26T05:15:45;33.50;;;16.80;;
35847;SDS011;22332;51.954;20.118;2024-02-26T05:18:52;33.40;;;17.10;;
35847;SDS011;22332;51.954;20.118;2024-02-26T05:21:58;33.00;;;17.10;;
35847;SDS011;22332;51.954;20.118;2024-02-26T05:25:04;31.90;;;16.40;;
35847;SDS011;22332;51.954;20.118;2024-02-26T05:28:10;97.50;;;33.70;;
35847;SDS011;22332;51.954;20.118;2024-02-26T05:31:15;86.80;;;32.10;;
35847;SDS011;22332;51.954;20.118;2024-02-26T05:34:21;54.40;;;23.10;;
35847;SDS011;22332;51.954;20.118;2024-02-26T05:37:27;41.90;;;20.00;;
35847;SDS011;22332;51.954;20.118;2024-02-26T05:40:32;40.50;;;18.40;;
35847;SDS011;22332;51.954;20.118;2024-02-26T05:43:38;38.60;;;19.70;;
35847;SDS011;22332;51.954;20.118;2024-02-26T05:46:44;33.50;;;16.50;;
35847;SDS011;22332;51.954;20.118;2024-02-26T05:49:49;35.10;;;16.90;;
35847;SDS011;22332;51.954;20.118;2024-02-26T05:52:55;32.50;;;16.10;;
35847;SDS011;22332;51.954;20.118;2024-02-26T05:56:01;37.90;;;16.20;;
35847;SDS011;22332;51.954;20.118;2024-02-26T05:59:07;31.00;;;16.30;;
35847;SDS011;22332;51.954;20.118;2024-02-26T06:02:13;26.80;;;15.80;;
35847;SDS011;22332;51.954;20.118;2024-02-26T06:05:19;28.70;;;15.90;;
35847;SDS011;22332;51.954;20.118;2024-02-26T06:08:24;29.20;;;16.40;;
35847;SDS011;22332;51.954;20.118;2024-02-26T06:11:30;31.80;;;17.10;;
35847;SDS011;22332;51.954;20.118;2024-02-26T06:14:35;30.30;;;17.20;;
35847;SDS011;22332;51.954;20.118;2024-02-26T06:17:41;29.00;;;16.70;;
35847;SDS011;22332;51.954;20.118;2024-02-26T06:20:46;33.30;;;17.90;;
35847;SDS011;22332;51.954;20.118;2024-02-26T06:23:52;32.30;;;17.90;;
35847;SDS011;22332;51.954;20.118;2024-02-26T06:26:58;30.90;;;17.90;;
35847;SDS011;22332;51.954;20.118;2024-02-26T06:30:04;32.50;;;19.10;;
35847;SDS011;22332;51.954;20.118;2024-02-26T06:33:13;37.10;;;21.40;;
35847;SDS011;22332;51.954;20.118;2024-02-26T06:36:19;38.00;;;20.90;;
35847;SDS011;22332;51.954;20.118;2024-02-26T06:39:25;42.30;;;24.40;;
35847;SDS011;22332;51.954;20.118;2024-02-26T06:42:31;52.50;;;28.40;;
35847;SDS011;22332;51.954;20.118;2024-02-26T06:45:36;41.80;;;20.70;;
35847;SDS011;22332;51.954;20.118;2024-02-26T06:48:42;41.40;;;20.50;;
35847;SDS011;22332;51.954;20.118;2024-02-26T06:51:48;37.10;;;18.50;;
35847;SDS011;22332;51.954;20.118;2024-02-26T06:54:53;35.40;;;17.90;;
35847;SDS011;22332;51.954;20.118;2024-02-26T06:57:59;31.90;;;18.70;;
35847;SDS011;22332;51.954;20.118;2024-02-26T07:01:04;33.10;;;20.30;;
35847;SDS011;22332;51.954;20.118;2024-02-26T07:04:11;32.20;;;20.10;;
35847;SDS011;22332;51.954;20.118;2024-02-26T07:07:16;40.60;;;22.40;;
35847;SDS011;22332;51.954;20.118;2024-02-26T07:10:22;45.40;;;25.50;;
35847;SDS011;22332;51.954;20.118;2024-02-26T07:13:27;34.30;;;19.40;;
35847;SDS011;22332;51.954;20.118;2024-02-26T07:16:33;31.00;;;17.90;;
35847;SDS011;22332;51.954;20.118;2024-02-26T07:19:38;24.90;;;14.90;;
35847;SDS011;22332;51.954;20.118;2024-02-26T07:22:44;27.00;;;14.00;;
35847;SDS011;22332;51.954;20.118;2024-02-26T07:25:50;25.70;;;14.80;;
35847;SDS011;22332;51.954;20.118;2024-02-26T07:28:55;26.90;;;15.90;;
35847;SDS011;22332;51.954;20.118;2024-02-26T07:32:01;34.10;;;20.70;;
35847;SDS011;22332;51.954;20.118;2024-02-26T07:35:08;29.60;;;17.70;;
35847;SDS011;22332;51.954;20.118;2024-02-26T07:38:13;32.70;;;21.00;;
35847;SDS011;22332;51.954;20.118;2024-02-26T07:41:19;29.40;;;17.40;;
35847;SDS011;22332;51.954;20.118;2024-02-26T07:44:25;23.40;;;14.90;;
35847;SDS011;22332;51.954;20.118;2024-02-26T07:47:30;22.90;;;14.60;;
35847;SDS011;22332;51.954;20.118;2024-02-26T07:50:37;24.00;;;14.50;;
35847;SDS011;22332;51.954;20.118;2024-02-26T07:53:43;23.20;;;13.40;;
35847;SDS011;22332;51.954;20.118;2024-02-26T07:56:49;21.80;;;12.40;;
35847;SDS011;22332;51.954;20.118;2024-02-26T07:59:55;23.60;;;13.30;;
35847;SDS011;22332;51.954;20.118;2024-02-26T08:03:00;22.10;;;13.40;;
35847;SDS011;22332;51.954;20.118;2024-02-26T08:06:07;21.70;;;13.20;;
35847;SDS011;22332;51.954;20.118;2024-02-26T08:09:13;18.90;;;12.50;;
35847;SDS011;22332;51.954;20.118;2024-02-26T08:12:18;21.80;;;13.30;;
35847;SDS011;22332;51.954;20.118;2024-02-26T08:15:24;19.80;;;13.10;;
35847;SDS011;22332;51.954;20.118;2024-02-26T08:18:30;17.40;;;11.40;;
35847;SDS011;22332;51.954;20.118;2024-02-26T08:21:35;17.30;;;10.40;;
35847;SDS011;22332;51.954;20.118;2024-02-26T08:24:41;18.80;;;12.20;;
35847;SDS011;22332;51.954;20.118;2024-02-26T08:27:47;18.90;;;12.00;;
35847;SDS011;22332;51.954;20.118;2024-02-26T08:30:52;21.30;;;13.00;;
35847;SDS011;22332;51.954;20.118;2024-02-26T08:33:58;18.40;;;12.10;;
35847;SDS011;22332;51.954;20.118;2024-02-26T08:37:04;18.30;;;12.10;;
35847;SDS011;22332;51.954;20.118;2024-02-26T08:40:11;20.50;;;11.80;;
35847;SDS011;22332;51.954;20.118;2024-02-26T08:43:20;18.00;;;11.50;;
35847;SDS011;22332;51.954;20.118;2024-02-26T08:46:25;17.20;;;11.30;;
35847;SDS011;22332;51.954;20.118;2024-02-26T08:49:31;16.80;;;11.00;;
35847;SDS011;22332;51.954;20.118;2024-02-26T08:52:36;16.50;;;11.40;;
35847;SDS011;22332;51.954;20.118;2024-02-26T08:55:43;16.80;;;10.50;;
35847;SDS011;22332;51.954;20.118;2024-02-26T08:58:49;13.90;;;10.60;;
35847;SDS011;22332;51.954;20.118;2024-02-26T09:01:56;15.30;;;10.10;;
35847;SDS011;22332;51.954;20.118;2024-02-26T09:05:02;15.20;;;9.90;;
35847;SDS011;22332;51.954;20.118;2024-02-26T09:08:08;11.60;;;7.90;;
35847;SDS011;22332;51.954;20.118;2024-02-26T09:11:14;11.80;;;8.70;;
35847;SDS011;22332;51.954;20.118;2024-02-26T09:14:19;15.90;;;9.70;;
35847;SDS011;22332;51.954;20.118;2024-02-26T09:17:25;13.00;;;9.40;;
35847;SDS011;22332;51.954;20.118;2024-02-26T09:20:31;13.40;;;9.10;;
35847;SDS011;22332;51.954;20.118;2024-02-26T09:23:36;26.70;;;19.90;;
35847;SDS011;22332;51.954;20.118;2024-02-26T09:26:41;22.00;;;15.50;;
35847;SDS011;22332;51.954;20.118;2024-02-26T09:29:47;29.10;;;24.30;;
35847;SDS011;22332;51.954;20.118;2024-02-26T09:32:53;18.80;;;13.30;;
35847;SDS011;22332;51.954;20.118;2024-02-26T09:35:58;13.80;;;9.40;;
35847;SDS011;22332;51.954;20.118;2024-02-26T09:39:04;16.10;;;10.90;;
35847;SDS011;22332;51.954;20.118;2024-02-26T09:42:14;14.60;;;11.00;;
35847;SDS011;22332;51.954;20.118;2024-02-26T09:45:22;16.80;;;10.60;;
35847;SDS011;22332;51.954;20.118;2024-02-26T09:48:31;13.60;;;10.20;;
35847;SDS011;22332;51.954;20.118;2024-02-26T09:51:38;13.80;;;10.50;;
35847;SDS011;22332;51.954;20.118;2024-02-26T09:54:44;14.50;;;10.20;;
35847;SDS011;22332;51.954;20.118;2024-02-26T09:57:52;14.50;;;10.30;;
35847;SDS011;22332;51.954;20.118;2024-02-26T10:01:00;14.90;;;9.70;;
35847;SDS011;22332;51.954;20.118;2024-02-26T10:04:11;13.50;;;10.40;;
35847;SDS011;22332;51.954;20.118;2024-02-26T10:07:18;13.80;;;9.10;;
35847;SDS011;22332;51.954;20.118;2024-02-26T10:10:24;11.90;;;8.40;;
35847;SDS011;22332;51.954;20.118;2024-02-26T10:13:31;13.60;;;9.10;;
35847;SDS011;22332;51.954;20.118;2024-02-26T10:16:38;12.30;;;8.50;;
35847;SDS011;22332;51.954;20.118;2024-02-26T10:19:44;13.10;;;9.10;;
35847;SDS011;22332;51.954;20.118;2024-02-26T10:22:49;12.70;;;9.10;;
35847;SDS011;22332;51.954;20.118;2024-02-26T10:25:55;11.30;;;8.50;;
35847;SDS011;22332;51.954;20.118;2024-02-26T10:29:01;11.40;;;8.20;;
35847;SDS011;22332;51.954;20.118;2024-02-26T10:32:07;13.40;;;8.30;;
35847;SDS011;22332;51.954;20.118;2024-02-26T10:35:14;11.50;;;7.90;;
35847;SDS011;22332;51.954;20.118;2024-02-26T10:38:20;12.90;;;8.30;;
35847;SDS011;22332;51.954;20.118;2024-02-26T10:41:26;10.20;;;8.20;;
35847;SDS011;22332;51.954;20.118;2024-02-26T10:44:32;10.70;;;7.90;;
35847;SDS011;22332;51.954;20.118;2024-02-26T10:47:38;12.30;;;8.40;;
35847;SDS011;22332;51.954;20.118;2024-02-26T10:50:45;9.10;;;7.10;;
35847;SDS011;22332;51.954;20.118;2024-02-26T10:53:53;8.70;;;6.00;;
35847;SDS011;22332;51.954;20.118;2024-02-26T10:57:04;8.30;;;6.10;;
35847;SDS011;22332;51.954;20.118;2024-02-26T11:00:13;6.80;;;5.20;;
35847;SDS011;22332;51.954;20.118;2024-02-26T11:03:20;8.00;;;5.70;;
35847;SDS011;22332;51.954;20.118;2024-02-26T11:06:26;7.60;;;5.80;;
35847;SDS011;22332;51.954;20.118;2024-02-26T11:09:32;7.50;;;4.70;;
35847;SDS011;22332;51.954;20.118;2024-02-26T11:12:39;56.20;;;29.20;;
35847;SDS011;22332;51.954;20.118;2024-02-26T11:15:45;12.90;;;8.20;;
35847;SDS011;22332;51.954;20.118;2024-02-26T11:18:52;16.80;;;12.60;;
35847;SDS011;22332;51.954;20.118;2024-02-26T11:21:59;11.20;;;8.40;;
35847;SDS011;22332;51.954;20.118;2024-02-26T11:25:05;10.40;;;7.20;;
35847;SDS011;22332;51.954;20.118;2024-02-26T11:28:14;7.40;;;5.70;;
35847;SDS011;22332;51.954;20.118;2024-02-26T11:31:21;8.30;;;6.10;;
35847;SDS011;22332;51.954;20.118;2024-02-26T11:34:30;8.70;;;6.70;;
35847;SDS011;22332;51.954;20.118;2024-02-26T11:37:36;9.70;;;7.50;;
35847;SDS011;22332;51.954;20.118;2024-02-26T11:40:41;11.40;;;7.00;;
35847;SDS011;22332;51.954;20.118;2024-02-26T11:43:50;9.50;;;7.80;;
35847;SDS011;22332;51.954;20.118;2024-02-26T11:46:56;9.60;;;8.00;;
35847;SDS011;22332;51.954;20.118;2024-02-26T11:53:46;8.80;;;7.20;;
35847;SDS011;22332;51.954;20.118;2024-02-26T11:56:52;7.80;;;6.60;;
35847;SDS011;22332;51.954;20.118;2024-02-26T12:00:10;9.30;;;7.30;;
35847;SDS011;22332;51.954;20.118;2024-02-26T12:03:19;8.70;;;7.20;;
35847;SDS011;22332;51.954;20.118;2024-02-26T12:06:26;7.90;;;6.40;;
35847;SDS011;22332;51.954;20.118;2024-02-26T12:09:33;8.80;;;6.80;;
35847;SDS011;22332;51.954;20.118;2024-02-26T12:12:40;10.20;;;7.70;;
35847;SDS011;22332;51.954;20.118;2024-02-26T12:15:55;8.10;;;7.00;;
35847;SDS011;22332;51.954;20.118;2024-02-26T12:19:02;9.10;;;7.60;;
35847;SDS011;22332;51.954;20.118;2024-02-26T12:22:10;11.00;;;9.00;;
35847;SDS011;22332;51.954;20.118;2024-02-26T12:25:19;9.90;;;7.90;;
35847;SDS011;22332;51.954;20.118;2024-02-26T12:28:28;10.80;;;9.10;;
35847;SDS011;22332;51.954;20.118;2024-02-26T12:31:34;12.50;;;10.10;;
35847;SDS011;22332;51.954;20.118;2024-02-26T12:34:41;10.90;;;9.70;;
35847;SDS011;22332;51.954;20.118;2024-02-26T12:37:48;11.40;;;9.80;;
35847;SDS011;22332;51.954;20.118;2024-02-26T12:40:54;11.40;;;9.90;;
35847;SDS011;22332;51.954;20.118;2024-02-26T12:43:59;13.40;;;10.10;;
35847;SDS011;22332;51.954;20.118;2024-02-26T12:47:05;12.20;;;10.00;;
35847;SDS011;22332;51.954;20.118;2024-02-26T12:50:11;13.60;;;10.00;;
35847;SDS011;22332;51.954;20.118;2024-02-26T12:53:17;11.40;;;9.30;;
35847;SDS011;22332;51.954;20.118;2024-02-26T12:56:22;11.60;;;9.80;;
35847;SDS011;22332;51.954;20.118;2024-02-26T12:59:29;9.90;;;8.80;;
35847;SDS011;22332;51.954;20.118;2024-02-26T13:02:36;9.90;;;8.90;;
35847;SDS011;22332;51.954;20.118;2024-02-26T13:05:43;11.20;;;8.60;;
35847;SDS011;22332;51.954;20.118;2024-02-26T13:08:49;11.50;;;10.20;;
35847;SDS011;22332;51.954;20.118;2024-02-26T13:12:03;10.40;;;9.00;;
35847;SDS011;22332;51.954;20.118;2024-02-26T13:15:13;10.20;;;8.70;;
35847;SDS011;22332;51.954;20.118;2024-02-26T13:18:20;11.80;;;9.00;;
35847;SDS011;22332;51.954;20.118;2024-02-26T13:21:25;10.90;;;9.30;;
35847;SDS011;22332;51.954;20.118;2024-02-26T13:24:31;11.00;;;9.70;;
35847;SDS011;22332;51.954;20.118;2024-02-26T13:27:37;10.30;;;8.80;;
35847;SDS011;22332;51.954;20.118;2024-02-26T13:30:42;9.70;;;8.40;;
35847;SDS011;22332;51.954;20.118;2024-02-26T13:33:55;10.70;;;9.00;;
35847;SDS011;22332;51.954;20.118;2024-02-26T13:37:01;9.50;;;8.30;;
35847;SDS011;22332;51.954;20.118;2024-02-26T13:40:09;14.10;;;12.00;;
35847;SDS011;22332;51.954;20.118;2024-02-26T13:43:15;12.10;;;9.70;;
35847;SDS011;22332;51.954;20.118;2024-02-26T13:46:22;9.70;;;8.20;;
35847;SDS011;22332;51.954;20.118;2024-02-26T13:49:27;9.40;;;7.70;;
35847;SDS011;22332;51.954;20.118;2024-02-26T13:52:33;8.90;;;7.60;;
35847;SDS011;22332;51.954;20.118;2024-02-26T13:55:38;9.00;;;7.70;;
35847;SDS011;22332;51.954;20.118;2024-02-26T13:58:46;10.40;;;8.10;;
35847;SDS011;22332;51.954;20.118;2024-02-26T14:01:51;10.20;;;7.60;;
35847;SDS011;22332;51.954;20.118;2024-02-26T14:04:58;7.10;;;6.00;;
35847;SDS011;22332;51.954;20.118;2024-02-26T14:08:06;8.70;;;7.20;;
35847;SDS011;22332;51.954;20.118;2024-02-26T14:11:12;8.40;;;7.20;;
35847;SDS011;22332;51.954;20.118;2024-02-26T14:14:18;8.40;;;6.80;;
35847;SDS011;22332;51.954;20.118;2024-02-26T14:17:24;11.00;;;7.50;;
35847;SDS011;22332;51.954;20.118;2024-02-26T14:20:29;8.70;;;7.40;;
35847;SDS011;22332;51.954;20.118;2024-02-26T14:23:35;10.10;;;8.10;;
35847;SDS011;22332;51.954;20.118;2024-02-26T14:26:41;9.70;;;7.40;;
35847;SDS011;22332;51.954;20.118;2024-02-26T14:29:46;9.30;;;7.60;;
35847;SDS011;22332;51.954;20.118;2024-02-26T14:32:52;11.60;;;7.90;;
35847;SDS011;22332;51.954;20.118;2024-02-26T14:35:58;9.90;;;8.60;;
35847;SDS011;22332;51.954;20.118;2024-02-26T14:39:04;11.10;;;8.00;;
35847;SDS011;22332;51.954;20.118;2024-02-26T14:42:11;8.60;;;7.20;;
35847;SDS011;22332;51.954;20.118;2024-02-26T14:45:20;7.80;;;6.80;;
35847;SDS011;22332;51.954;20.118;2024-02-26T14:48:25;10.30;;;8.00;;
35847;SDS011;22332;51.954;20.118;2024-02-26T14:51:32;11.70;;;8.40;;
35847;SDS011;22332;51.954;20.118;2024-02-26T14:54:38;11.10;;;8.40;;
35847;SDS011;22332;51.954;20.118;2024-02-26T14:57:43;9.20;;;7.30;;
35847;SDS011;22332;51.954;20.118;2024-02-26T15:00:49;11.60;;;8.90;;
35847;SDS011;22332;51.954;20.118;2024-02-26T15:03:54;10.90;;;7.40;;
35847;SDS011;22332;51.954;20.118;2024-02-26T15:07:00;8.30;;;6.50;;
35847;SDS011;22332;51.954;20.118;2024-02-26T15:10:06;7.80;;;6.00;;
35847;SDS011;22332;51.954;20.118;2024-02-26T15:13:13;16.20;;;10.70;;
35847;SDS011;22332;51.954;20.118;2024-02-26T15:16:20;10.70;;;7.90;;
35847;SDS011;22332;51.954;20.118;2024-02-26T15:19:26;11.50;;;8.40;;
35847;SDS011;22332;51.954;20.118;2024-02-26T15:22:31;9.80;;;7.80;;
35847;SDS011;22332;51.954;20.118;2024-02-26T15:25:37;10.70;;;7.90;;
35847;SDS011;22332;51.954;20.118;2024-02-26T15:28:44;12.20;;;9.40;;
35847;SDS011;22332;51.954;20.118;2024-02-26T15:31:49;11.80;;;8.10;;
35847;SDS011;22332;51.954;20.118;2024-02-26T15:34:55;12.20;;;9.30;;
35847;SDS011;22332;51.954;20.118;2024-02-26T15:38:01;13.80;;;10.00;;
35847;SDS011;22332;51.954;20.118;2024-02-26T15:41:11;16.00;;;10.80;;
35847;SDS011;22332;51.954;20.118;2024-02-26T15:44:17;14.00;;;9.00;;
35847;SDS011;22332;51.954;20.118;2024-02-26T15:47:23;16.00;;;11.30;;
35847;SDS011;22332;51.954;20.118;2024-02-26T15:50:28;32.80;;;17.20;;
35847;SDS011;22332;51.954;20.118;2024-02-26T15:53:34;45.50;;;22.30;;
35847;SDS011;22332;51.954;20.118;2024-02-26T15:56:41;49.20;;;24.90;;
35847;SDS011;22332;51.954;20.118;2024-02-26T15:59:47;48.40;;;24.80;;
35847;SDS011;22332;51.954;20.118;2024-02-26T16:02:54;51.50;;;26.10;;
35847;SDS011;22332;51.954;20.118;2024-02-26T16:05:59;33.50;;;18.10;;
35847;SDS011;22332;51.954;20.118;2024-02-26T16:09:05;22.80;;;12.30;;
35847;SDS011;22332;51.954;20.118;2024-02-26T16:12:13;26.80;;;12.80;;
35847;SDS011;22332;51.954;20.118;2024-02-26T16:18:27;28.70;;;17.30;;
35847;SDS011;22332;51.954;20.118;2024-02-26T16:21:33;35.10;;;21.10;;
35847;SDS011;22332;51.954;20.118;2024-02-26T16:24:39;36.60;;;20.90;;
35847;SDS011;22332;51.954;20.118;2024-02-26T16:27:44;49.30;;;31.90;;
35847;SDS011;22332;51.954;20.118;2024-02-26T16:30:50;45.80;;;29.20;;
35847;SDS011;22332;51.954;20.118;2024-02-26T16:33:56;31.50;;;19.90;;
35847;SDS011;22332;51.954;20.118;2024-02-26T16:37:04;32.60;;;20.80;;
35847;SDS011;22332;51.954;20.118;2024-02-26T16:40:14;33.40;;;20.70;;
35847;SDS011;22332;51.954;20.118;2024-02-26T16:43:20;32.80;;;20.10;;
35847;SDS011;22332;51.954;20.118;2024-02-26T16:46:25;23.40;;;15.20;;
35847;SDS011;22332;51.954;20.118;2024-02-26T16:49:31;28.70;;;20.10;;
35847;SDS011;22332;51.954;20.118;2024-02-26T16:52:37;27.10;;;17.10;;
35847;SDS011;22332;51.954;20.118;2024-02-26T16:55:43;33.70;;;17.30;;
35847;SDS011;22332;51.954;20.118;2024-02-26T16:58:49;38.50;;;20.80;;
35847;SDS011;22332;51.954;20.118;2024-02-26T17:01:56;31.50;;;18.20;;
35847;SDS011;22332;51.954;20.118;2024-02-26T17:05:03;33.60;;;19.60;;
35847;SDS011;22332;51.954;20.118;2024-02-26T17:08:10;42.60;;;25.10;;
35847;SDS011;22332;51.954;20.118;2024-02-26T17:11:16;39.00;;;24.00;;
35847;SDS011;22332;51.954;20.118;2024-02-26T17:14:25;42.10;;;26.00;;
35847;SDS011;22332;51.954;20.118;2024-02-26T17:17:34;43.60;;;28.30;;
35847;SDS011;22332;51.954;20.118;2024-02-26T17:20:40;73.40;;;38.80;;
35847;SDS011;22332;51.954;20.118;2024-02-26T17:23:46;89.80;;;46.60;;
35847;SDS011;22332;51.954;20.118;2024-02-26T17:26:51;81.90;;;48.00;;
35847;SDS011;22332;51.954;20.118;2024-02-26T17:29:57;64.80;;;40.60;;
35847;SDS011;22332;51.954;20.118;2024-02-26T17:33:03;68.40;;;41.70;;
35847;SDS011;22332;51.954;20.118;2024-02-26T17:36:09;43.60;;;26.00;;
35847;SDS011;22332;51.954;20.118;2024-02-26T17:39:15;33.20;;;19.80;;
35847;SDS011;22332;51.954;20.118;2024-02-26T17:42:20;33.30;;;20.60;;
35847;SDS011;22332;51.954;20.118;2024-02-26T17:45:26;44.10;;;28.60;;
35847;SDS011;22332;51.954;20.118;2024-02-26T17:48:32;30.80;;;19.40;;
35847;SDS011;22332;51.954;20.118;2024-02-26T17:51:37;30.00;;;18.40;;
35847;SDS011;22332;51.954;20.118;2024-02-26T17:54:44;32.90;;;20.70;;
35847;SDS011;22332;51.954;20.118;2024-02-26T17:57:49;27.90;;;18.30;;
35847;SDS011;22332;51.954;20.118;2024-02-26T18:00:55;30.50;;;20.50;;
35847;SDS011;22332;51.954;20.118;2024-02-26T18:04:01;32.80;;;21.70;;
35847;SDS011;22332;51.954;20.118;2024-02-26T18:07:07;31.40;;;21.20;;